Time;durP1;ratioP1;P1;durP2;ratioP2;P2;SDS_P1;SDS_P2;PMS_P1;PMS_P2;Temp;Humidity;BMP_temperature;BMP_pressure;BME280_temperature;BME280_humidity;BME280_pressure;Samples;Min_cycle;Max_cycle;Signal;HPM_P1;HPM_P2
2022/07/31 00:01:11;;;;;;;;;;;;;;;;;;5009176;28;19913;-43
2022/07/31 00:03:37;;;;;;;;;;;;;;;;;;5009362;28;20368;-42
2022/07/31 00:06:03;;;;;;;;;;;;;;;;;;5009640;28;19911;-44
2022/07/31 00:08:29;;;;;;;;;;;;;;;;;;5009160;28;20079;-43
2022/07/31 00:10:55;;;;;;;;;;;;;;;;;;5009207;28;19910;-42
2022/07/31 00:13:21;;;;;;;;;;;;;;;;;;5010038;28;19913;-43
2022/07/31 00:15:47;;;;;;;;;;;;;;;;;;5009586;28;20406;-43
2022/07/31 00:18:14;;;;;;;;;;;;;;;;;;5008187;28;20198;-44
2022/07/31 00:20:39;;;;;;;;;;;;;;;;;;4999054;28;19971;-42
2022/07/31 00:23:06;;;;;;;;;;;;;;;;;;4988883;28;20333;-42
2022/07/31 00:25:32;;;;;;;;;;;;;;;;;;5007569;28;20287;-43
2022/07/31 00:27:58;;;;;;;;;;;;;;;;;;5009050;28;20024;-43
2022/07/31 00:30:24;;;;;;;;;;;;;;;;;;5008459;28;19964;-43
2022/07/31 00:32:51;;;;;;;;;;;;;;;;;;5009724;28;20009;-43
2022/07/31 00:35:17;;;;;;;;;;;;;;;;;;5008916;28;19918;-42
2022/07/31 00:37:43;;;;;;;;;;;;;;;;;;5008587;28;19923;-42
2022/07/31 00:40:09;;;;;;;;;;;;;;;;;;5008862;28;20303;-44
2022/07/31 00:42:35;;;;;;;;;;;;;;;;;;5008422;28;20145;-42
2022/07/31 00:45:01;;;;;;;;;;;;;;;;;;5008414;28;20410;-43
2022/07/31 00:47:27;;;;;;;;;;;;;;;;;;5008624;28;19914;-43
2022/07/31 00:49:53;;;;;;;;;;;;;;;;;;5008917;28;19917;-42
2022/07/31 00:52:19;;;;;;;;;;;;;;;;;;5009183;28;20305;-43
2022/07/31 00:54:46;;;;;;;;;;;;;;;;;;5008229;28;19917;-43
2022/07/31 00:57:11;;;;;;;;;;;;;;;;;;5008314;28;19918;-43
2022/07/31 00:59:37;;;;;;;;;;;;;;;;;;5008212;28;19909;-43
2022/07/31 01:02:03;;;;;;;;;;;;;;;;;;5008387;28;19909;-44
2022/07/31 01:04:29;;;;;;;;;;;;;;;;;;5008290;28;19916;-43
2022/07/31 01:06:55;;;;;;;;;;;;;;;;;;5007918;28;19913;-43
2022/07/31 01:09:21;;;;;;;;;;;;;;;;;;5007442;28;20081;-43
2022/07/31 01:11:47;;;;;;;;;;;;;;;;;;5008098;28;19996;-44
2022/07/31 01:14:14;;;;;;;;;;;;;;;;;;5008252;28;19924;-43
2022/07/31 01:16:40;;;;;;;;;;;;;;;;;;5007635;28;19909;-46
2022/07/31 01:19:06;;;;;;;;;;;;;;;;;;5007705;28;19967;-44
2022/07/31 01:21:32;;;;;;;;;;;;;;;;;;4999289;28;19914;-44
2022/07/31 01:23:58;;;;;;;;;;;;;;;;;;4992977;28;19914;-43
2022/07/31 01:26:24;;;;;;;;;;;;;;;;;;5007812;28;19963;-44
2022/07/31 01:28:50;;;;;;;;;;;;;;;;;;5008150;28;19921;-44
2022/07/31 01:31:16;;;;;;;;;;;;;;;;;;5007568;28;19913;-43
2022/07/31 01:33:43;;;;;;;;;;;;;;;;;;5004743;28;20398;-42
2022/07/31 01:36:09;;;;;;;;;;;;;;;;;;5007294;28;19916;-44
2022/07/31 01:38:35;;;;;;;;;;;;;;;;;;5006571;28;19914;-45
2022/07/31 01:41:01;;;;;;;;;;;;;;;;;;4987909;28;19913;-43
2022/07/31 01:43:27;;;;;;;;;;;;;;;;;;4988015;28;20325;-42
2022/07/31 01:45:53;;;;;;;;;;;;;;;;;;4988006;28;19910;-43
2022/07/31 01:48:18;;;;;;;;;;;;;;;;;;4988062;28;19910;-43
2022/07/31 01:50:44;;;;;;;;;;;;;;;;;;4987636;28;19937;-42
2022/07/31 01:53:10;;;;;;;;;;;;;;;;;;4988072;28;20000;-43
2022/07/31 01:55:36;;;;;;;;;;;;;;;;;;4988166;28;19982;-43
2022/07/31 01:58:02;;;;;;;;;;;;;;;;;;4988668;28;19916;-43
2022/07/31 02:00:28;;;;;;;;;;;;;;;;;;4985923;28;19906;-42
2022/07/31 02:02:54;;;;;;;;;;;;;;;;;;4987887;28;19910;-43
2022/07/31 02:05:20;;;;;;;;;;;;;;;;;;4987747;28;19906;-44
2022/07/31 02:07:46;;;;;;;;;;;;;;;;;;4987473;28;19988;-45
2022/07/31 02:10:12;;;;;;;;;;;;;;;;;;4987478;28;20337;-43
2022/07/31 02:12:39;;;;;;;;;;;;;;;;;;4987313;28;20318;-44
2022/07/31 02:15:05;;;;;;;;;;;;;;;;;;4988102;28;19917;-44
2022/07/31 02:17:31;;;;;;;;;;;;;;;;;;4987280;28;20049;-44
2022/07/31 02:19:57;;;;;;;;;;;;;;;;;;4987551;28;19973;-46
2022/07/31 02:22:23;;;;;;;;;;;;;;;;;;4986508;28;19925;-43
2022/07/31 02:24:50;;;;;;;;;;;;;;;;;;4989054;28;20414;-44
2022/07/31 02:27:16;;;;;;;;;;;;;;;;;;4986020;28;20045;-43
2022/07/31 02:29:42;;;;;;;;;;;;;;;;;;4987101;28;20008;-46
2022/07/31 02:32:09;;;;;;;;;;;;;;;;;;4987205;28;20401;-46
2022/07/31 02:34:36;;;;;;;;;;;;;;;;;;4987763;28;20379;-43
2022/07/31 02:37:02;;;;;;;;;;;;;;;;;;4987978;28;20362;-43
2022/07/31 02:39:28;;;;;;;;;;;;;;;;;;4986858;28;19993;-46
2022/07/31 02:41:56;;;;;;;;;;;;;;;;;;4986605;28;19937;-45
2022/07/31 02:44:22;;;;;;;;;;;;;;;;;;4986849;28;19921;-42
2022/07/31 02:46:48;;;;;;;;;;;;;;;;;;4987211;28;20314;-44
2022/07/31 02:49:14;;;;;;;;;;;;;;;;;;4987052;28;20276;-44
2022/07/31 02:51:40;;;;;;;;;;;;;;;;;;4986849;28;19913;-45
2022/07/31 02:54:06;;;;;;;;;;;;;;;;;;4986482;28;19914;-45
2022/07/31 02:56:32;;;;;;;;;;;;;;;;;;4986094;28;19914;-45
2022/07/31 02:58:59;;;;;;;;;;;;;;;;;;4986897;28;19914;-45
2022/07/31 03:01:25;;;;;;;;;;;;;;;;;;4986616;28;19916;-44
2022/07/31 03:03:52;;;;;;;;;;;;;;;;;;4987247;28;20295;-46
2022/07/31 03:06:18;;;;;;;;;;;;;;;;;;4986985;28;20415;-45
2022/07/31 03:08:45;;;;;;;;;;;;;;;;;;4986693;28;19914;-44
2022/07/31 03:11:11;;;;;;;;;;;;;;;;;;4985620;28;19910;-45
2022/07/31 03:13:37;;;;;;;;;;;;;;;;;;4987309;28;20314;-44
2022/07/31 03:16:03;;;;;;;;;;;;;;;;;;4987574;28;20387;-44
2022/07/31 03:18:29;;;;;;;;;;;;;;;;;;4986857;28;19957;-44
2022/07/31 03:20:55;;;;;;;;;;;;;;;;;;4986717;28;20315;-44
2022/07/31 03:23:21;;;;;;;;;;;;;;;;;;4986760;28;19913;-45
2022/07/31 03:25:47;;;;;;;;;;;;;;;;;;4987781;28;19917;-44
2022/07/31 03:28:13;;;;;;;;;;;;;;;;;;4986758;28;19944;-44
2022/07/31 03:30:39;;;;;;;;;;;;;;;;;;4986441;28;19916;-44
2022/07/31 03:33:05;;;;;;;;;;;;;;;;;;4989957;28;19909;-44
2022/07/31 03:35:32;;;;;;;;;;;;;;;;;;5006928;28;20024;-44
2022/07/31 03:37:58;;;;;;;;;;;;;;;;;;5001829;28;19924;-45
2022/07/31 03:40:24;;;;;;;;;;;;;;;;;;4986471;28;19910;-45
2022/07/31 03:42:51;;;;;;;;;;;;;;;;;;4986929;28;19996;-42
2022/07/31 03:45:19;;;;;;;;;;;;;;;;;;4987099;28;19914;-42
2022/07/31 03:47:45;;;;;;;;;;;;;;;;;;4985250;28;20034;-42
2022/07/31 03:50:11;;;;;;;;;;;;;;;;;;4986667;28;20198;-42
2022/07/31 03:52:37;;;;;;;;;;;;;;;;;;4988406;28;19924;-42
2022/07/31 03:55:04;;;;;;;;;;;;;;;;;;4990450;28;19980;-42
2022/07/31 03:57:29;;;;;;;;;;;;;;;;;;4989965;28;19910;-43
2022/07/31 03:59:56;;;;;;;;;;;;;;;;;;4989688;28;19980;-42
2022/07/31 04:02:22;;;;;;;;;;;;;;;;;;4989961;28;19972;-46
2022/07/31 04:04:48;;;;;;;;;;;;;;;;;;4990182;28;19909;-44
2022/07/31 04:07:14;;;;;;;;;;;;;;;;;;4990109;28;19968;-44
2022/07/31 04:09:40;;;;;;;;;;;;;;;;;;4989702;28;19909;-42
2022/07/31 04:12:06;;;;;;;;;;;;;;;;;;4990479;28;20391;-43
2022/07/31 04:14:32;;;;;;;;;;;;;;;;;;4989437;28;19967;-42
2022/07/31 04:16:59;;;;;;;;;;;;;;;;;;4989952;28;19967;-42
2022/07/31 04:19:25;;;;;;;;;;;;;;;;;;4989353;28;19913;-43
2022/07/31 04:21:51;;;;;;;;;;;;;;;;;;4989858;28;19957;-43
2022/07/31 04:24:19;;;;;;;;;;;;;;;;;;4991792;28;19922;-43
2022/07/31 04:26:47;;;;;;;;;;;;;;;;;;4988486;28;20421;-42
2022/07/31 04:29:14;;;;;;;;;;;;;;;;;;4989170;28;20508;-42
2022/07/31 04:31:41;;;;;;;;;;;;;;;;;;4989188;28;20415;-44
2022/07/31 04:34:07;;;;;;;;;;;;;;;;;;4990147;28;19914;-43
2022/07/31 04:36:33;;;;;;;;;;;;;;;;;;4989483;28;20374;-42
2022/07/31 04:39:00;;;;;;;;;;;;;;;;;;4989464;28;20017;-43
2022/07/31 04:41:26;;;;;;;;;;;;;;;;;;4989113;28;19910;-42
2022/07/31 04:43:52;;;;;;;;;;;;;;;;;;4989144;28;20001;-43
2022/07/31 04:46:19;;;;;;;;;;;;;;;;;;4989143;28;19957;-43
2022/07/31 04:48:45;;;;;;;;;;;;;;;;;;4989072;28;20362;-42
2022/07/31 04:51:12;;;;;;;;;;;;;;;;;;4989231;28;19940;-43
2022/07/31 04:53:38;;;;;;;;;;;;;;;;;;4988956;28;20058;-41
2022/07/31 04:58:50;;;;;;;;;;;;;;;;;;4989248;28;19916;-43
2022/07/31 05:01:16;;;;;;;;;;;;;;;;;;4988955;28;19924;-42
2022/07/31 05:03:42;;;;;;;;;;;;;;;;;;4988267;28;20353;-43
2022/07/31 05:06:09;;;;;;;;;;;;;;;;;;4988841;28;20272;-42
2022/07/31 05:08:35;;;;;;;;;;;;;;;;;;4989055;28;19956;-43
2022/07/31 05:13:45;;;;;;;;;;;;;;;;;;4988287;28;20379;-44
2022/07/31 05:16:11;;;;;;;;;;;;;;;;;;4988781;28;19921;-44
2022/07/31 05:18:37;;;;;;;;;;;;;;;;;;4988992;28;20303;-44
2022/07/31 05:21:03;;;;;;;;;;;;;;;;;;4989384;28;19914;-44
2022/07/31 05:23:30;;;;;;;;;;;;;;;;;;4989987;28;19917;-55
2022/07/31 05:25:56;;;;;;;;;;;;;;;;;;4996314;28;19918;-55
2022/07/31 05:28:22;;;;;;;;;;;;;;;;;;4987528;28;20009;-55
2022/07/31 05:30:48;;;;;;;;;;;;;;;;;;4988443;28;20371;-55
2022/07/31 05:33:14;;;;;;;;;;;;;;;;;;4988559;28;19921;-56
2022/07/31 05:35:39;;;;;;;;;;;;;;;;;;4988196;28;19913;-53
2022/07/31 05:38:05;;;;;;;;;;;;;;;;;;4993382;28;19920;-51
2022/07/31 05:40:31;;;;;;;;;;;;;;;;;;5007353;28;19985;-55
2022/07/31 05:42:57;;;;;;;;;;;;;;;;;;5007842;28;19914;-55
2022/07/31 05:45:23;;;;;;;;;;;;;;;;;;5007632;28;19918;-56
2022/07/31 05:47:49;;;;;;;;;;;;;;;;;;5007859;28;19909;-54
2022/07/31 05:50:15;;;;;;;;;;;;;;;;;;5007973;28;19917;-55
2022/07/31 05:52:41;;;;;;;;;;;;;;;;;;5001244;28;19936;-55
2022/07/31 05:55:07;;;;;;;;;;;;;;;;;;5006470;28;20417;-53
2022/07/31 05:57:33;;;;;;;;;;;;;;;;;;5004470;28;19909;-52
2022/07/31 05:59:59;;;;;;;;;;;;;;;;;;5006491;28;20353;-53
2022/07/31 06:02:25;;;;;;;;;;;;;;;;;;5007140;28;19996;-53
2022/07/31 06:04:51;;;;;;;;;;;;;;;;;;5007734;28;19910;-53
2022/07/31 06:07:18;;;;;;;;;;;;;;;;;;5007546;28;19925;-50
2022/07/31 06:09:44;;;;;;;;;;;;;;;;;;5007406;28;19963;-53
2022/07/31 06:12:10;;;;;;;;;;;;;;;;;;5005217;28;19917;-52
2022/07/31 06:14:36;;;;;;;;;;;;;;;;;;4999619;28;20398;-52
2022/07/31 06:17:02;;;;;;;;;;;;;;;;;;5002550;28;19913;-52
2022/07/31 06:19:27;;;;;;;;;;;;;;;;;;5007875;28;20069;-51
2022/07/31 06:21:53;;;;;;;;;;;;;;;;;;5002839;28;19913;-50
2022/07/31 06:24:19;;;;;;;;;;;;;;;;;;4993211;28;20000;-52
2022/07/31 06:26:45;;;;;;;;;;;;;;;;;;4996100;28;19914;-51
2022/07/31 06:29:11;;;;;;;;;;;;;;;;;;4987701;28;19964;-52
2022/07/31 06:31:37;;;;;;;;;;;;;;;;;;5005889;28;19928;-52
2022/07/31 06:34:04;;;;;;;;;;;;;;;;;;5008658;28;19913;-49
2022/07/31 06:36:30;;;;;;;;;;;;;;;;;;5007566;28;19909;-51
2022/07/31 06:38:56;;;;;;;;;;;;;;;;;;5007240;28;19932;-50
2022/07/31 06:44:07;;;;;;;;;;;;;;;;;;5008515;28;19968;-53
2022/07/31 06:46:33;;;;;;;;;;;;;;;;;;5008244;28;19913;-53
2022/07/31 06:48:59;;;;;;;;;;;;;;;;;;5008044;28;19916;-52
2022/07/31 06:51:25;;;;;;;;;;;;;;;;;;5006119;28;19919;-52
2022/07/31 06:53:51;;;;;;;;;;;;;;;;;;4992901;28;19937;-51
2022/07/31 06:56:17;;;;;;;;;;;;;;;;;;4989148;28;19917;-52
2022/07/31 06:58:43;;;;;;;;;;;;;;;;;;4987960;28;19913;-53
2022/07/31 07:01:08;;;;;;;;;;;;;;;;;;4987907;28;19932;-52
2022/07/31 07:03:34;;;;;;;;;;;;;;;;;;4988686;28;19913;-51
2022/07/31 07:06:02;;;;;;;;;;;;;;;;;;4997672;28;20013;-53
2022/07/31 07:08:28;;;;;;;;;;;;;;;;;;4999873;28;20343;-53
2022/07/31 07:10:54;;;;;;;;;;;;;;;;;;5000391;28;20009;-49
2022/07/31 07:13:20;;;;;;;;;;;;;;;;;;5007394;28;19996;-51
2022/07/31 07:15:46;;;;;;;;;;;;;;;;;;5005224;28;19917;-50
2022/07/31 07:18:12;;;;;;;;;;;;;;;;;;5006834;28;19916;-52
2022/07/31 07:20:38;;;;;;;;;;;;;;;;;;4993498;28;19922;-53
2022/07/31 07:23:04;;;;;;;;;;;;;;;;;;5004547;28;19920;-52
2022/07/31 07:25:29;;;;;;;;;;;;;;;;;;4997823;28;20065;-52
2022/07/31 07:27:55;;;;;;;;;;;;;;;;;;5002244;28;19918;-50
2022/07/31 07:30:21;;;;;;;;;;;;;;;;;;5006009;28;19997;-53
2022/07/31 07:32:47;;;;;;;;;;;;;;;;;;4992186;28;19921;-49
2022/07/31 07:35:14;;;;;;;;;;;;;;;;;;4992604;28;19925;-52
2022/07/31 07:37:41;;;;;;;;;;;;;;;;;;4991756;28;20005;-50
2022/07/31 07:40:07;;;;;;;;;;;;;;;;;;5007473;28;19924;-49
2022/07/31 07:42:33;;;;;;;;;;;;;;;;;;5010965;28;19915;-51
2022/07/31 07:44:59;;;;;;;;;;;;;;;;;;5010576;28;19910;-52
2022/07/31 07:47:25;;;;;;;;;;;;;;;;;;5003777;28;19921;-53
2022/07/31 07:49:51;;;;;;;;;;;;;;;;;;4998892;28;19909;-50
2022/07/31 07:52:17;;;;;;;;;;;;;;;;;;5003358;28;19924;-50
2022/07/31 07:54:42;;;;;;;;;;;;;;;;;;4988600;28;19922;-50
2022/07/31 07:57:08;;;;;;;;;;;;;;;;;;4990887;28;19940;-51
2022/07/31 07:59:34;;;;;;;;;;;;;;;;;;5004839;28;19932;-49
2022/07/31 08:02:00;;;;;;;;;;;;;;;;;;5009717;28;19967;-52
2022/07/31 08:04:26;;;;;;;;;;;;;;;;;;5010864;28;19932;-52
2022/07/31 08:06:52;;;;;;;;;;;;;;;;;;5008707;28;19913;-53
2022/07/31 08:09:19;;;;;;;;;;;;;;;;;;4997361;28;19914;-53
2022/07/31 08:11:45;;;;;;;;;;;;;;;;;;5009532;28;20291;-49
2022/07/31 08:14:11;;;;;;;;;;;;;;;;;;5007162;28;19922;-53
2022/07/31 08:16:37;;;;;;;;;;;;;;;;;;4996237;28;19940;-52
2022/07/31 08:19:03;;;;;;;;;;;;;;;;;;5000008;28;19932;-53
2022/07/31 08:21:29;;;;;;;;;;;;;;;;;;5001559;28;19913;-53
2022/07/31 08:23:55;;;;;;;;;;;;;;;;;;4999443;28;19917;-52
2022/07/31 08:26:21;;;;;;;;;;;;;;;;;;5002910;28;19921;-51
2022/07/31 08:28:48;;;;;;;;;;;;;;;;;;5007989;28;20012;-51
2022/07/31 08:31:14;;;;;;;;;;;;;;;;;;5008431;28;19913;-53
2022/07/31 08:33:40;;;;;;;;;;;;;;;;;;5009918;28;19956;-51
2022/07/31 08:36:07;;;;;;;;;;;;;;;;;;5009532;28;20394;-53
2022/07/31 08:38:33;;;;;;;;;;;;;;;;;;5008872;28;20460;-53
2022/07/31 08:40:59;;;;;;;;;;;;;;;;;;5009375;28;20000;-52
2022/07/31 08:43:26;;;;;;;;;;;;;;;;;;5008343;28;19914;-51
2022/07/31 08:45:52;;;;;;;;;;;;;;;;;;5009642;28;19949;-53
2022/07/31 08:48:18;;;;;;;;;;;;;;;;;;5009736;28;20398;-53
2022/07/31 08:50:44;;;;;;;;;;;;;;;;;;5007278;28;19917;-53
2022/07/31 08:53:10;;;;;;;;;;;;;;;;;;4995046;28;19918;-53
2022/07/31 08:55:35;;;;;;;;;;;;;;;;;;4993692;28;20382;-51
2022/07/31 08:58:01;;;;;;;;;;;;;;;;;;5008638;28;19914;-52
2022/07/31 09:00:27;;;;;;;;;;;;;;;;;;4990979;28;20645;-52
2022/07/31 09:02:53;;;;;;;;;;;;;;;;;;4996657;28;20024;-52
2022/07/31 09:05:20;;;;;;;;;;;;;;;;;;5007474;28;19924;-52
2022/07/31 09:07:46;;;;;;;;;;;;;;;;;;4993686;28;19914;-52
2022/07/31 09:10:12;;;;;;;;;;;;;;;;;;5006624;28;20274;-53
2022/07/31 09:12:38;;;;;;;;;;;;;;;;;;5008919;28;19917;-52
2022/07/31 09:15:04;;;;;;;;;;;;;;;;;;5009151;28;19921;-53
2022/07/31 09:17:30;;;;;;;;;;;;;;;;;;5008458;28;19909;-52
2022/07/31 09:19:56;;;;;;;;;;;;;;;;;;5006734;28;20011;-51
2022/07/31 09:22:22;;;;;;;;;;;;;;;;;;4993265;28;19914;-52
2022/07/31 09:24:48;;;;;;;;;;;;;;;;;;5005603;28;19917;-53
2022/07/31 09:27:16;;;;;;;;;;;;;;;;;;5008350;28;19917;-51
2022/07/31 09:29:42;;;;;;;;;;;;;;;;;;5005172;28;19936;-54
2022/07/31 09:32:08;;;;;;;;;;;;;;;;;;5000097;28;19988;-52
2022/07/31 09:34:34;;;;;;;;;;;;;;;;;;4989408;28;20346;-54
2022/07/31 09:37:00;;;;;;;;;;;;;;;;;;4989004;28;19910;-53
2022/07/31 09:39:26;;;;;;;;;;;;;;;;;;4988520;28;20005;-53
2022/07/31 09:41:52;;;;;;;;;;;;;;;;;;4988827;28;19910;-53
2022/07/31 09:44:18;;;;;;;;;;;;;;;;;;4994857;28;19924;-52
2022/07/31 09:46:44;;;;;;;;;;;;;;;;;;5022060;28;19917;-53
2022/07/31 09:49:11;;;;;;;;;;;;;;;;;;5021988;28;20375;-53
2022/07/31 09:51:37;;;;;;;;;;;;;;;;;;5014705;28;19940;-54
2022/07/31 09:54:03;;;;;;;;;;;;;;;;;;5000026;28;19914;-54
2022/07/31 09:56:29;;;;;;;;;;;;;;;;;;5006595;28;19913;-54
2022/07/31 09:58:55;;;;;;;;;;;;;;;;;;5021678;28;19913;-54
2022/07/31 10:01:21;;;;;;;;;;;;;;;;;;5013291;28;20025;-52
2022/07/31 10:03:49;;;;;;;;;;;;;;;;;;5004817;28;19914;-55
2022/07/31 10:06:15;;;;;;;;;;;;;;;;;;4998749;28;19917;-53
2022/07/31 10:08:41;;;;;;;;;;;;;;;;;;5001355;28;20539;-53
2022/07/31 10:11:07;;;;;;;;;;;;;;;;;;5002643;28;20004;-54
2022/07/31 10:13:33;;;;;;;;;;;;;;;;;;4993331;28;20022;-55
2022/07/31 10:16:00;;;;;;;;;;;;;;;;;;4988056;28;19953;-52
2022/07/31 10:18:26;;;;;;;;;;;;;;;;;;4987741;28;19910;-53
2022/07/31 10:20:52;;;;;;;;;;;;;;;;;;4987975;28;20311;-53
2022/07/31 10:23:18;;;;;;;;;;;;;;;;;;4998536;28;19920;-54
2022/07/31 10:25:44;;;;;;;;;;;;;;;;;;4993581;28;20357;-53
2022/07/31 10:28:09;;;;;;;;;;;;;;;;;;4988940;28;20016;-52
2022/07/31 10:30:35;;;;;;;;;;;;;;;;;;5017812;28;19963;-53
2022/07/31 10:33:01;;;;;;;;;;;;;;;;;;5027317;28;20391;-54
2022/07/31 10:35:28;;;;;;;;;;;;;;;;;;5020193;28;19917;-54
2022/07/31 10:37:54;;;;;;;;;;;;;;;;;;5007028;28;19920;-55
2022/07/31 10:40:20;;;;;;;;;;;;;;;;;;5007364;28;20318;-54
2022/07/31 10:42:46;;;;;;;;;;;;;;;;;;5005886;28;19969;-54
2022/07/31 10:45:16;;;;;;;;;;;;;;;;;;4989197;28;19914;-43
2022/07/31 10:47:42;;;;;;;;;;;;;;;;;;5004758;28;19918;-44
2022/07/31 10:50:08;;;;;;;;;;;;;;;;;;5001314;28;20017;-42
2022/07/31 10:52:34;;;;;;;;;;;;;;;;;;4987828;28;19914;-43
2022/07/31 10:55:00;;;;;;;;;;;;;;;;;;4987909;28;20299;-44
2022/07/31 10:57:26;;;;;;;;;;;;;;;;;;5005224;28;20294;-43
2022/07/31 10:59:52;;;;;;;;;;;;;;;;;;4987959;28;19917;-45
2022/07/31 11:02:18;;;;;;;;;;;;;;;;;;4988411;28;19914;-45
2022/07/31 11:04:44;;;;;;;;;;;;;;;;;;4991397;28;20016;-44
2022/07/31 11:07:10;;;;;;;;;;;;;;;;;;4997023;28;20111;-44
2022/07/31 11:09:36;;;;;;;;;;;;;;;;;;4992908;28;19914;-43
2022/07/31 11:12:02;;;;;;;;;;;;;;;;;;4997392;28;19921;-43
2022/07/31 11:14:28;;;;;;;;;;;;;;;;;;5000872;28;19921;-43
2022/07/31 11:16:54;;;;;;;;;;;;;;;;;;4993203;28;20042;-43
2022/07/31 11:19:20;;;;;;;;;;;;;;;;;;4991593;28;19921;-46
2022/07/31 11:21:46;;;;;;;;;;;;;;;;;;5007855;28;19913;-44
2022/07/31 11:24:12;;;;;;;;;;;;;;;;;;5005512;28;20004;-44
2022/07/31 11:26:38;;;;;;;;;;;;;;;;;;4994414;28;19968;-44
2022/07/31 11:29:04;;;;;;;;;;;;;;;;;;4998014;28;19932;-45
2022/07/31 11:31:30;;;;;;;;;;;;;;;;;;4999014;28;19936;-46
2022/07/31 11:33:56;;;;;;;;;;;;;;;;;;5002514;28;19920;-46
2022/07/31 11:36:23;;;;;;;;;;;;;;;;;;5001553;28;19993;-43
2022/07/31 11:38:50;;;;;;;;;;;;;;;;;;4993878;28;19914;-44
2022/07/31 11:41:16;;;;;;;;;;;;;;;;;;5006864;28;20023;-43
2022/07/31 11:43:42;;;;;;;;;;;;;;;;;;5003335;28;20458;-43
2022/07/31 11:46:08;;;;;;;;;;;;;;;;;;4996314;28;20287;-41
2022/07/31 11:48:34;;;;;;;;;;;;;;;;;;4999152;28;19924;-44
2022/07/31 11:51:00;;;;;;;;;;;;;;;;;;4990807;28;19918;-45
2022/07/31 11:53:26;;;;;;;;;;;;;;;;;;5002082;28;19924;-45
2022/07/31 11:55:52;;;;;;;;;;;;;;;;;;4995066;28;19918;-43
2022/07/31 11:58:18;;;;;;;;;;;;;;;;;;4998599;28;20338;-42
2022/07/31 12:00:44;;;;;;;;;;;;;;;;;;5003111;28;20429;-43
2022/07/31 12:03:10;;;;;;;;;;;;;;;;;;4999938;28;20651;-44
2022/07/31 12:05:36;;;;;;;;;;;;;;;;;;4997877;28;19949;-45
2022/07/31 12:08:02;;;;;;;;;;;;;;;;;;4988720;28;20527;-46
2022/07/31 12:10:28;;;;;;;;;;;;;;;;;;4992098;28;19917;-45
2022/07/31 12:12:54;;;;;;;;;;;;;;;;;;4987525;28;19914;-43
2022/07/31 12:15:21;;;;;;;;;;;;;;;;;;4989563;28;19921;-43
2022/07/31 12:17:47;;;;;;;;;;;;;;;;;;4994161;28;20017;-56
2022/07/31 12:20:13;;;;;;;;;;;;;;;;;;4993423;28;20004;-56
2022/07/31 12:22:39;;;;;;;;;;;;;;;;;;5001544;28;19960;-56
2022/07/31 12:25:08;;;;;;;;;;;;;;;;;;5000539;28;19929;-57
2022/07/31 12:27:34;;;;;;;;;;;;;;;;;;4994908;28;19918;-56
2022/07/31 12:30:00;;;;;;;;;;;;;;;;;;4988264;28;19914;-58
2022/07/31 12:32:27;;;;;;;;;;;;;;;;;;4988217;28;19920;-57
2022/07/31 12:34:53;;;;;;;;;;;;;;;;;;4996354;28;19918;-57
2022/07/31 12:37:20;;;;;;;;;;;;;;;;;;4997923;28;19963;-57
2022/07/31 12:39:47;;;;;;;;;;;;;;;;;;4995246;28;19918;-57
2022/07/31 12:42:13;;;;;;;;;;;;;;;;;;5005006;28;19999;-55
2022/07/31 12:44:39;;;;;;;;;;;;;;;;;;4995969;28;20387;-57
2022/07/31 12:47:05;;;;;;;;;;;;;;;;;;4989249;28;19913;-56
2022/07/31 12:49:32;;;;;;;;;;;;;;;;;;5000655;28;19917;-57
2022/07/31 12:51:58;;;;;;;;;;;;;;;;;;5005515;28;19967;-53
2022/07/31 12:54:25;;;;;;;;;;;;;;;;;;5003616;28;20016;-54
2022/07/31 12:56:50;;;;;;;;;;;;;;;;;;5007248;28;19914;-53
2022/07/31 12:59:16;;;;;;;;;;;;;;;;;;5006480;28;19920;-43
2022/07/31 13:01:42;;;;;;;;;;;;;;;;;;5007718;28;19913;-44
2022/07/31 13:04:09;;;;;;;;;;;;;;;;;;5007100;28;20031;-41
2022/07/31 13:06:36;;;;;;;;;;;;;;;;;;5008053;28;19910;-54
2022/07/31 13:09:03;;;;;;;;;;;;;;;;;;4988785;28;19914;-52
2022/07/31 13:11:32;;;;;;;;;;;;;;;;;;4987564;28;19914;-54
2022/07/31 13:13:57;;;;;;;;;;;;;;;;;;4988195;28;20843;-53
2022/07/31 13:16:24;;;;;;;;;;;;;;;;;;4987983;28;19909;-54
2022/07/31 13:18:51;;;;;;;;;;;;;;;;;;5000805;28;20429;-54
2022/07/31 13:21:17;;;;;;;;;;;;;;;;;;5005654;28;19921;-53
2022/07/31 13:23:43;;;;;;;;;;;;;;;;;;5006025;28;19914;-53
2022/07/31 13:26:09;;;;;;;;;;;;;;;;;;5006822;28;19932;-53
2022/07/31 13:28:36;;;;;;;;;;;;;;;;;;5007648;28;19917;-54
2022/07/31 13:31:02;;;;;;;;;;;;;;;;;;4997222;28;19913;-52
2022/07/31 13:33:28;;;;;;;;;;;;;;;;;;4987530;28;19921;-54
2022/07/31 13:35:54;;;;;;;;;;;;;;;;;;4991534;28;19917;-53
2022/07/31 13:38:21;;;;;;;;;;;;;;;;;;5005652;28;19913;-54
2022/07/31 13:43:31;;;;;;;;;;;;;;;;;;5007195;28;19999;-55
2022/07/31 13:45:58;;;;;;;;;;;;;;;;;;5007067;28;20369;-54
2022/07/31 13:48:24;;;;;;;;;;;;;;;;;;5007139;28;19964;-53
2022/07/31 13:50:50;;;;;;;;;;;;;;;;;;5006643;28;19917;-54
2022/07/31 13:53:16;;;;;;;;;;;;;;;;;;5000186;28;19914;-54
2022/07/31 13:55:41;;;;;;;;;;;;;;;;;;4986882;28;19956;-54
2022/07/31 13:58:08;;;;;;;;;;;;;;;;;;4987966;28;20391;-54
2022/07/31 14:00:35;;;;;;;;;;;;;;;;;;4988938;28;19924;-55
2022/07/31 14:03:01;;;;;;;;;;;;;;;;;;4986816;28;19929;-54
2022/07/31 14:05:27;;;;;;;;;;;;;;;;;;4987161;28;19921;-53
2022/07/31 14:07:53;;;;;;;;;;;;;;;;;;4986750;28;20009;-52
2022/07/31 14:10:20;;;;;;;;;;;;;;;;;;4985743;28;19921;-55
2022/07/31 14:12:46;;;;;;;;;;;;;;;;;;4987664;28;19917;-53
2022/07/31 14:15:12;;;;;;;;;;;;;;;;;;4999369;28;19975;-53
2022/07/31 14:17:38;;;;;;;;;;;;;;;;;;5004512;28;20402;-50
2022/07/31 14:20:04;;;;;;;;;;;;;;;;;;5006900;28;19916;-53
2022/07/31 14:22:30;;;;;;;;;;;;;;;;;;5005529;28;20382;-52
2022/07/31 14:24:56;;;;;;;;;;;;;;;;;;5006317;28;20386;-53
2022/07/31 14:27:22;;;;;;;;;;;;;;;;;;5005479;28;19917;-51
2022/07/31 14:29:48;;;;;;;;;;;;;;;;;;5004962;28;19925;-53
2022/07/31 14:32:14;;;;;;;;;;;;;;;;;;5006027;28;19929;-54
2022/07/31 14:34:40;;;;;;;;;;;;;;;;;;5005700;28;19921;-52
2022/07/31 14:37:06;;;;;;;;;;;;;;;;;;4994819;28;19918;-52
2022/07/31 14:39:33;;;;;;;;;;;;;;;;;;4986039;28;20303;-52
2022/07/31 14:41:59;;;;;;;;;;;;;;;;;;4986060;28;19917;-53
2022/07/31 14:44:26;;;;;;;;;;;;;;;;;;4984520;28;19917;-53
2022/07/31 14:46:52;;;;;;;;;;;;;;;;;;4986405;28;19914;-53
2022/07/31 14:49:19;;;;;;;;;;;;;;;;;;4986521;28;19906;-53
2022/07/31 14:51:46;;;;;;;;;;;;;;;;;;4988508;28;19917;-52
2022/07/31 14:54:12;;;;;;;;;;;;;;;;;;4984732;28;19914;-53
2022/07/31 14:56:37;;;;;;;;;;;;;;;;;;4986258;28;19921;-53
2022/07/31 14:59:03;;;;;;;;;;;;;;;;;;4986912;28;20449;-53
2022/07/31 15:01:29;;;;;;;;;;;;;;;;;;4986381;28;20013;-53
2022/07/31 15:03:55;;;;;;;;;;;;;;;;;;4998939;28;19972;-52
2022/07/31 15:06:21;;;;;;;;;;;;;;;;;;4986495;28;20429;-52
2022/07/31 15:08:47;;;;;;;;;;;;;;;;;;4985957;28;19918;-53
2022/07/31 15:11:13;;;;;;;;;;;;;;;;;;4984950;28;19921;-53
2022/07/31 15:13:39;;;;;;;;;;;;;;;;;;4988014;28;19964;-51
2022/07/31 15:16:07;;;;;;;;;;;;;;;;;;5006350;28;19928;-51
2022/07/31 15:18:33;;;;;;;;;;;;;;;;;;4987612;28;19914;-51
2022/07/31 15:20:59;;;;;;;;;;;;;;;;;;4988866;28;20008;-51
2022/07/31 15:23:25;;;;;;;;;;;;;;;;;;5002481;28;20724;-53
2022/07/31 15:25:51;;;;;;;;;;;;;;;;;;5007261;28;19910;-53
2022/07/31 15:28:17;;;;;;;;;;;;;;;;;;5000382;28;19929;-51
2022/07/31 15:30:43;;;;;;;;;;;;;;;;;;4993555;28;19921;-52
2022/07/31 15:33:09;;;;;;;;;;;;;;;;;;5000456;28;19920;-52
2022/07/31 15:35:34;;;;;;;;;;;;;;;;;;5002960;28;19929;-51
2022/07/31 15:38:02;;;;;;;;;;;;;;;;;;5002705;28;19913;-52
2022/07/31 15:40:28;;;;;;;;;;;;;;;;;;4998741;28;20463;-53
2022/07/31 15:42:54;;;;;;;;;;;;;;;;;;4991180;28;20324;-52
2022/07/31 15:45:21;;;;;;;;;;;;;;;;;;4990577;28;20310;-52
2022/07/31 15:47:47;;;;;;;;;;;;;;;;;;4998655;28;20291;-52
2022/07/31 15:50:13;;;;;;;;;;;;;;;;;;4999765;28;19918;-53
2022/07/31 15:52:39;;;;;;;;;;;;;;;;;;4995288;28;19922;-53
2022/07/31 15:55:05;;;;;;;;;;;;;;;;;;4989039;28;19917;-54
2022/07/31 15:57:32;;;;;;;;;;;;;;;;;;4997284;28;19920;-53
2022/07/31 15:59:57;;;;;;;;;;;;;;;;;;4999423;28;19921;-54
2022/07/31 16:02:23;;;;;;;;;;;;;;;;;;4998227;28;19976;-54
2022/07/31 16:04:49;;;;;;;;;;;;;;;;;;4995460;28;19945;-55
2022/07/31 16:07:15;;;;;;;;;;;;;;;;;;4996491;28;19925;-55
2022/07/31 16:09:41;;;;;;;;;;;;;;;;;;4991323;28;19960;-54
2022/07/31 16:12:08;;;;;;;;;;;;;;;;;;4991612;28;19988;-53
2022/07/31 16:14:34;;;;;;;;;;;;;;;;;;4997387;28;19964;-55
2022/07/31 16:17:00;;;;;;;;;;;;;;;;;;5000762;28;19917;-54
2022/07/31 16:19:26;;;;;;;;;;;;;;;;;;5008658;28;19913;-54
2022/07/31 16:21:52;;;;;;;;;;;;;;;;;;4997320;28;19921;-54
2022/07/31 16:24:18;;;;;;;;;;;;;;;;;;4989534;28;19921;-53
2022/07/31 16:26:44;;;;;;;;;;;;;;;;;;4989482;28;19945;-54
2022/07/31 16:29:10;;;;;;;;;;;;;;;;;;5000090;28;19971;-56
2022/07/31 16:31:35;;;;;;;;;;;;;;;;;;4996361;28;19964;-55
2022/07/31 16:34:01;;;;;;;;;;;;;;;;;;5009076;28;19960;-55
2022/07/31 16:36:27;;;;;;;;;;;;;;;;;;5008227;28;19921;-55
2022/07/31 16:38:53;;;;;;;;;;;;;;;;;;5006463;28;19967;-54
2022/07/31 16:41:19;;;;;;;;;;;;;;;;;;4997010;28;19914;-54
2022/07/31 16:43:45;;;;;;;;;;;;;;;;;;5006704;28;19917;-54
2022/07/31 16:46:11;;;;;;;;;;;;;;;;;;5000941;28;19921;-54
2022/07/31 16:48:37;;;;;;;;;;;;;;;;;;5004468;28;19963;-55